Time;durP1;ratioP1;P1;durP2;ratioP2;P2;SDS_P1;SDS_P2;PMS_P1;PMS_P2;Temp;Humidity;BMP_temperature;BMP_pressure;BME280_temperature;BME280_humidity;BME280_pressure;Samples;Min_cycle;Max_cycle;Signal;HPM_P1;HPM_P2
2023/05/05 00:00:55;;;;;;;0.77;0.77;;;;;;;;;;4970970;28;20038;-80
2023/05/05 00:03:21;;;;;;;1.58;0.90;;;;;;;;;;4977580;28;20030;-81
2023/05/05 00:05:47;;;;;;;0.88;0.60;;;;;;;;;;4983915;28;20122;-80
2023/05/05 00:08:14;;;;;;;3.28;0.80;;;;;;;;;;4983103;28;20023;-80
2023/05/05 00:10:41;;;;;;;1.48;0.85;;;;;;;;;;4985763;28;20122;-81
2023/05/05 00:13:07;;;;;;;0.85;0.82;;;;;;;;;;4986972;28;20026;-80
2023/05/05 00:15:33;;;;;;;1.10;0.80;;;;;;;;;;4988356;28;20081;-80
2023/05/05 00:17:59;;;;;;;3.90;0.75;;;;;;;;;;4988570;28;20026;-81
2023/05/05 00:20:25;;;;;;;0.70;0.70;;;;;;;;;;4990188;28;20141;-80
2023/05/05 00:22:51;;;;;;;2.17;0.98;;;;;;;;;;4987361;28;20065;-80
2023/05/05 00:25:19;;;;;;;1.67;0.98;;;;;;;;;;4978745;28;20037;-80
2023/05/05 00:27:45;;;;;;;0.85;0.70;;;;;;;;;;4970936;28;20085;-80
2023/05/05 00:30:12;;;;;;;1.38;1.00;;;;;;;;;;4988917;28;20022;-81
2023/05/05 00:32:38;;;;;;;0.85;0.80;;;;;;;;;;4971993;28;20037;-81
2023/05/05 00:35:05;;;;;;;1.00;0.70;;;;;;;;;;4977108;28;20022;-81
2023/05/05 00:37:31;;;;;;;3.72;0.70;;;;;;;;;;4970076;28;20030;-80
2023/05/05 00:39:57;;;;;;;0.93;0.50;;;;;;;;;;4982839;28;20038;-80
2023/05/05 00:42:23;;;;;;;1.25;0.93;;;;;;;;;;4984102;28;20054;-81
2023/05/05 00:44:52;;;;;;;0.65;0.63;;;;;;;;;;4985382;28;20426;-81
2023/05/05 00:47:21;;;;;;;1.02;0.93;;;;;;;;;;4976945;28;20068;-80
2023/05/05 00:49:47;;;;;;;1.75;1.00;;;;;;;;;;4983321;28;20030;-81
2023/05/05 00:52:13;;;;;;;1.05;0.90;;;;;;;;;;4978420;28;20038;-81
2023/05/05 00:54:42;;;;;;;0.68;0.63;;;;;;;;;;4969989;28;20063;-80
2023/05/05 00:57:08;;;;;;;1.23;0.77;;;;;;;;;;4988316;28;20049;-80
2023/05/05 00:59:35;;;;;;;2.22;1.13;;;;;;;;;;4988200;28;20058;-80
2023/05/05 01:02:01;;;;;;;1.02;0.70;;;;;;;;;;4985223;28;20362;-79
2023/05/05 01:04:27;;;;;;;0.80;0.70;;;;;;;;;;4974953;28;20490;-79
2023/05/05 01:07:21;;;;;;;1.13;0.80;;;;;;;;;;4985673;28;20030;-80
2023/05/05 01:10:08;;;;;;;0.60;0.60;;;;;;;;;;4984796;28;20046;-80
2023/05/05 01:12:40;;;;;;;0.73;0.68;;;;;;;;;;4966668;28;20478;-80
2023/05/05 01:15:14;;;;;;;1.95;1.20;;;;;;;;;;4977362;28;20053;-79
2023/05/05 01:17:54;;;;;;;0.98;0.82;;;;;;;;;;4986151;28;20117;-79
2023/05/05 01:20:25;;;;;;;1.38;0.70;;;;;;;;;;4987308;28;20026;-80
2023/05/05 01:22:59;;;;;;;2.00;0.88;;;;;;;;;;4986723;28;20026;-80
2023/05/05 01:25:47;;;;;;;1.85;0.80;;;;;;;;;;4977928;28;20066;-80
2023/05/05 01:28:23;;;;;;;0.95;0.63;;;;;;;;;;4988537;28;20022;-79
2023/05/05 01:31:03;;;;;;;0.60;0.60;;;;;;;;;;4971116;28;20030;-79
2023/05/05 01:33:32;;;;;;;1.35;0.98;;;;;;;;;;4971676;28;20041;-79
2023/05/05 01:36:02;;;;;;;1.05;0.77;;;;;;;;;;4975253;28;20026;-80
2023/05/05 01:38:39;;;;;;;1.30;0.50;;;;;;;;;;4988863;28;20083;-80
2023/05/05 01:41:13;;;;;;;0.82;0.70;;;;;;;;;;4985407;28;20160;-80
2023/05/05 01:43:39;;;;;;;0.70;0.70;;;;;;;;;;4980955;28;20034;-80
2023/05/05 01:46:06;;;;;;;1.92;0.80;;;;;;;;;;4974407;28;20417;-80
2023/05/05 01:48:32;;;;;;;2.17;0.88;;;;;;;;;;4988092;28;20022;-80
2023/05/05 01:51:00;;;;;;;0.80;0.57;;;;;;;;;;4985420;28;20191;-80
2023/05/05 01:53:26;;;;;;;3.00;0.80;;;;;;;;;;4983464;28;20035;-80
2023/05/05 01:55:54;;;;;;;0.75;0.55;;;;;;;;;;4974298;28;20035;-79
2023/05/05 01:58:21;;;;;;;0.88;0.80;;;;;;;;;;4973823;28;20034;-80
2023/05/05 02:00:47;;;;;;;1.73;0.80;;;;;;;;;;4978560;28;20035;-80
2023/05/05 02:03:14;;;;;;;0.70;0.52;;;;;;;;;;4984394;28;20031;-80
2023/05/05 02:05:41;;;;;;;1.10;0.90;;;;;;;;;;4979083;28;20478;-80
2023/05/05 02:08:08;;;;;;;0.70;0.70;;;;;;;;;;4969863;28;20035;-80
2023/05/05 02:10:34;;;;;;;1.35;0.77;;;;;;;;;;4983740;28;20026;-80
2023/05/05 02:13:03;;;;;;;0.75;0.60;;;;;;;;;;4978847;28;20041;-80
2023/05/05 02:15:32;;;;;;;0.70;0.70;;;;;;;;;;4975695;28;20034;-80
2023/05/05 02:17:58;;;;;;;1.38;0.80;;;;;;;;;;4987999;28;20124;-80
2023/05/05 02:20:25;;;;;;;0.80;0.60;;;;;;;;;;4987535;28;20026;-80
2023/05/05 02:22:51;;;;;;;1.23;0.93;;;;;;;;;;4979131;28;20030;-80
2023/05/05 02:25:17;;;;;;;0.80;0.65;;;;;;;;;;4987465;28;20080;-80
2023/05/05 02:27:44;;;;;;;1.10;0.85;;;;;;;;;;4971179;28;20034;-80
2023/05/05 02:30:15;;;;;;;0.73;0.52;;;;;;;;;;4979071;28;20499;-80
2023/05/05 02:32:48;;;;;;;0.60;0.60;;;;;;;;;;4973966;28;20592;-80
2023/05/05 02:35:15;;;;;;;0.80;0.80;;;;;;;;;;4981596;28;20156;-80
2023/05/05 02:37:44;;;;;;;1.13;0.77;;;;;;;;;;4986299;28;20042;-80
2023/05/05 02:40:11;;;;;;;0.63;0.60;;;;;;;;;;4987658;28;20029;-80
2023/05/05 02:42:38;;;;;;;0.40;0.40;;;;;;;;;;4984877;28;20493;-80
2023/05/05 02:45:10;;;;;;;1.05;0.60;;;;;;;;;;4985594;28;20026;-80
2023/05/05 02:47:36;;;;;;;0.60;0.55;;;;;;;;;;4987152;28;20022;-80
2023/05/05 02:50:04;;;;;;;1.45;0.60;;;;;;;;;;4973409;28;20019;-80
2023/05/05 02:52:30;;;;;;;0.60;0.60;;;;;;;;;;4982311;28;20046;-80
2023/05/05 02:54:56;;;;;;;0.75;0.75;;;;;;;;;;4983663;28;20037;-80
2023/05/05 02:57:25;;;;;;;0.50;0.50;;;;;;;;;;4986972;28;20053;-80
2023/05/05 02:59:56;;;;;;;1.20;0.63;;;;;;;;;;4988672;28;20050;-80
2023/05/05 03:02:34;;;;;;;0.57;0.57;;;;;;;;;;4989921;28;20030;-80
2023/05/05 03:05:04;;;;;;;0.98;0.93;;;;;;;;;;4990917;28;20047;-80
2023/05/05 03:07:38;;;;;;;1.48;0.68;;;;;;;;;;4979301;28;20040;-80
2023/05/05 03:10:13;;;;;;;0.80;0.80;;;;;;;;;;4985960;28;20036;-80
2023/05/05 03:12:43;;;;;;;1.05;0.95;;;;;;;;;;4989566;28;20508;-79
2023/05/05 03:15:10;;;;;;;0.70;0.70;;;;;;;;;;4985111;28;20041;-80
2023/05/05 03:17:36;;;;;;;0.50;0.50;;;;;;;;;;4988792;28;20031;-80
2023/05/05 03:20:04;;;;;;;3.03;0.90;;;;;;;;;;4976017;28;20110;-80
2023/05/05 03:22:30;;;;;;;0.52;0.50;;;;;;;;;;4988580;28;20038;-80
2023/05/05 03:24:56;;;;;;;0.50;0.50;;;;;;;;;;4971664;28;20433;-80
2023/05/05 03:27:22;;;;;;;0.60;0.60;;;;;;;;;;4970879;28;20022;-80
2023/05/05 03:29:48;;;;;;;0.52;0.50;;;;;;;;;;4972353;28;20027;-79
2023/05/05 03:32:14;;;;;;;0.88;0.82;;;;;;;;;;4983157;28;20034;-80
2023/05/05 03:34:39;;;;;;;1.00;0.80;;;;;;;;;;4989934;28;20034;-80
2023/05/05 03:37:05;;;;;;;0.90;0.82;;;;;;;;;;4986849;28;20032;-80
2023/05/05 03:39:31;;;;;;;1.08;0.88;;;;;;;;;;4983780;28;20092;-80
2023/05/05 03:41:57;;;;;;;0.82;0.77;;;;;;;;;;4982358;28;20077;-80
2023/05/05 03:44:23;;;;;;;0.65;0.57;;;;;;;;;;4976947;28;20014;-80
2023/05/05 03:46:49;;;;;;;2.67;0.70;;;;;;;;;;4978771;28;20034;-80
2023/05/05 03:49:15;;;;;;;0.55;0.55;;;;;;;;;;4971565;28;20696;-80
2023/05/05 03:51:41;;;;;;;1.13;0.68;;;;;;;;;;4983448;28;20023;-81
2023/05/05 03:54:07;;;;;;;1.85;1.23;;;;;;;;;;4972211;28;20023;-81
2023/05/05 03:56:33;;;;;;;3.03;0.60;;;;;;;;;;4979649;28;20572;-79
2023/05/05 03:58:59;;;;;;;1.42;0.90;;;;;;;;;;4980056;28;20497;-80
2023/05/05 04:01:27;;;;;;;0.65;0.65;;;;;;;;;;4972157;28;20038;-81
2023/05/05 04:03:53;;;;;;;2.40;0.73;;;;;;;;;;4983511;28;20042;-80
2023/05/05 04:06:20;;;;;;;1.27;0.75;;;;;;;;;;4973109;28;20027;-80
2023/05/05 04:08:45;;;;;;;2.35;1.00;;;;;;;;;;4984507;28;20018;-80
2023/05/05 04:11:11;;;;;;;0.50;0.50;;;;;;;;;;4992530;28;20029;-80
2023/05/05 04:13:37;;;;;;;1.40;0.90;;;;;;;;;;4982814;28;20531;-81
2023/05/05 04:16:04;;;;;;;0.50;0.50;;;;;;;;;;4984156;28;20034;-80
2023/05/05 04:18:30;;;;;;;0.70;0.65;;;;;;;;;;4987872;28;20034;-80
2023/05/05 04:20:56;;;;;;;1.42;0.82;;;;;;;;;;4975711;28;20027;-80
2023/05/05 04:23:22;;;;;;;1.42;0.77;;;;;;;;;;4975678;28;20026;-81
2023/05/05 04:25:48;;;;;;;1.75;0.70;;;;;;;;;;4983104;28;20034;-81
2023/05/05 04:28:14;;;;;;;0.65;0.60;;;;;;;;;;4993654;28;20065;-80
2023/05/05 04:30:40;;;;;;;1.20;0.85;;;;;;;;;;5003290;28;20516;-81
2023/05/05 04:33:06;;;;;;;1.17;0.80;;;;;;;;;;4994588;28;20054;-81
2023/05/05 04:35:32;;;;;;;1.85;1.00;;;;;;;;;;4986333;28;20118;-81
2023/05/05 04:37:58;;;;;;;0.95;0.88;;;;;;;;;;4994934;28;20077;-82
2023/05/05 04:40:25;;;;;;;0.38;0.38;;;;;;;;;;4987464;28;20035;-81
2023/05/05 04:42:51;;;;;;;2.15;0.65;;;;;;;;;;5001776;28;20061;-81
2023/05/05 04:45:17;;;;;;;0.98;0.70;;;;;;;;;;5004045;28;20019;-81
2023/05/05 04:47:43;;;;;;;1.00;0.70;;;;;;;;;;4997233;28;20023;-80
2023/05/05 04:50:12;;;;;;;1.70;0.52;;;;;;;;;;4997920;28;20014;-81
2023/05/05 04:52:39;;;;;;;1.20;0.98;;;;;;;;;;4990865;28;20358;-80
2023/05/05 04:55:05;;;;;;;2.65;0.75;;;;;;;;;;5003285;28;20034;-81
2023/05/05 04:57:31;;;;;;;1.40;0.82;;;;;;;;;;5004256;28;20396;-81
2023/05/05 04:59:58;;;;;;;0.60;0.60;;;;;;;;;;5005006;28;20104;-81
2023/05/05 05:02:25;;;;;;;1.60;0.55;;;;;;;;;;5004638;28;20390;-81
2023/05/05 05:04:51;;;;;;;5.05;0.77;;;;;;;;;;5002323;28;20051;-80
2023/05/05 05:07:17;;;;;;;0.70;0.57;;;;;;;;;;4996805;28;20547;-81
2023/05/05 05:09:43;;;;;;;0.43;0.43;;;;;;;;;;4992049;28;20031;-80
2023/05/05 05:12:09;;;;;;;1.15;0.80;;;;;;;;;;4989444;28;20026;-81
2023/05/05 05:14:36;;;;;;;0.70;0.60;;;;;;;;;;4985803;28;20027;-82
2023/05/05 05:17:02;;;;;;;0.77;0.52;;;;;;;;;;4986518;28;20543;-82
2023/05/05 05:19:28;;;;;;;0.70;0.57;;;;;;;;;;4983875;28;20026;-81
2023/05/05 05:21:54;;;;;;;0.90;0.80;;;;;;;;;;4988641;28;20097;-81
2023/05/05 05:24:20;;;;;;;0.90;0.70;;;;;;;;;;4984756;28;20115;-81
2023/05/05 05:26:46;;;;;;;2.17;0.98;;;;;;;;;;4981192;28;20051;-80
2023/05/05 05:29:12;;;;;;;1.27;0.82;;;;;;;;;;4973350;28;20078;-80
2023/05/05 05:31:38;;;;;;;1.52;0.95;;;;;;;;;;4979721;28;20034;-81
2023/05/05 05:34:05;;;;;;;3.85;0.70;;;;;;;;;;4984919;28;20030;-82
2023/05/05 05:36:31;;;;;;;1.05;0.70;;;;;;;;;;4988240;28;20026;-81
2023/05/05 05:38:57;;;;;;;2.20;1.00;;;;;;;;;;4962390;28;20057;-81
2023/05/05 05:41:23;;;;;;;1.67;0.77;;;;;;;;;;4983914;28;20035;-81
2023/05/05 05:43:49;;;;;;;2.13;0.90;;;;;;;;;;4973435;28;20093;-81
2023/05/05 05:46:15;;;;;;;0.60;0.60;;;;;;;;;;4987702;28;20023;-83
2023/05/05 05:48:41;;;;;;;2.45;0.82;;;;;;;;;;4978471;28;20023;-82
2023/05/05 05:51:07;;;;;;;0.43;0.43;;;;;;;;;;4980185;28;20385;-81
2023/05/05 05:53:33;;;;;;;1.92;1.02;;;;;;;;;;4983227;28;20469;-81
2023/05/05 05:56:00;;;;;;;0.65;0.63;;;;;;;;;;4976113;28;20035;-78
2023/05/05 05:58:26;;;;;;;1.08;0.82;;;;;;;;;;4980455;28;20031;-81
2023/05/05 06:00:52;;;;;;;1.27;0.80;;;;;;;;;;4988568;28;20034;-80
2023/05/05 06:03:18;;;;;;;1.80;0.70;;;;;;;;;;4980668;28;20109;-80
2023/05/05 06:05:45;;;;;;;0.60;0.60;;;;;;;;;;4983469;28;21345;-81
2023/05/05 06:08:11;;;;;;;0.90;0.60;;;;;;;;;;4988430;28;20037;-81
2023/05/05 06:10:38;;;;;;;0.85;0.73;;;;;;;;;;4992574;28;20053;-81
2023/05/05 06:13:04;;;;;;;1.63;0.93;;;;;;;;;;4982139;28;20031;-80
2023/05/05 06:15:30;;;;;;;1.00;0.90;;;;;;;;;;4983223;28;20077;-80
2023/05/05 06:17:56;;;;;;;0.50;0.50;;;;;;;;;;4983557;28;20027;-80
2023/05/05 06:20:22;;;;;;;0.93;0.60;;;;;;;;;;4984492;28;20026;-80
2023/05/05 06:22:48;;;;;;;1.60;0.70;;;;;;;;;;4977147;28;20034;-80
2023/05/05 06:25:15;;;;;;;1.00;0.80;;;;;;;;;;4975963;28;20053;-80
2023/05/05 06:27:41;;;;;;;4.38;0.85;;;;;;;;;;4987889;28;20034;-80
2023/05/05 06:30:08;;;;;;;2.55;1.55;;;;;;;;;;4988264;28;20018;-80
2023/05/05 06:32:34;;;;;;;0.95;0.63;;;;;;;;;;4986521;28;20085;-78
2023/05/05 06:35:00;;;;;;;0.98;0.90;;;;;;;;;;4988401;28;20191;-80
2023/05/05 06:37:26;;;;;;;2.15;1.05;;;;;;;;;;4983061;28;20049;-80
2023/05/05 06:39:52;;;;;;;1.00;0.75;;;;;;;;;;4992670;28;20058;-80
2023/05/05 06:42:18;;;;;;;2.22;0.95;;;;;;;;;;4991282;28;20022;-79
2023/05/05 06:44:44;;;;;;;0.70;0.70;;;;;;;;;;4991391;28;20085;-80
2023/05/05 06:47:10;;;;;;;0.60;0.60;;;;;;;;;;4992286;28;20022;-80
2023/05/05 06:49:36;;;;;;;2.38;0.82;;;;;;;;;;4988167;28;20101;-80
2023/05/05 06:52:02;;;;;;;0.95;0.88;;;;;;;;;;4984245;28;20074;-80
2023/05/05 06:54:28;;;;;;;0.85;0.75;;;;;;;;;;4987505;28;20022;-79
2023/05/05 06:56:54;;;;;;;2.97;1.00;;;;;;;;;;4991337;28;20168;-80
2023/05/05 06:59:20;;;;;;;2.33;1.05;;;;;;;;;;4987962;28;20027;-82
2023/05/05 07:01:46;;;;;;;1.30;0.77;;;;;;;;;;4986844;28;20026;-73
2023/05/05 07:04:12;;;;;;;0.70;0.70;;;;;;;;;;4982479;28;20069;-82
2023/05/05 07:06:38;;;;;;;2.08;0.77;;;;;;;;;;4988014;28;20113;-82
2023/05/05 07:09:04;;;;;;;1.33;0.80;;;;;;;;;;4992926;28;20389;-77
2023/05/05 07:11:30;;;;;;;0.88;0.80;;;;;;;;;;4988074;28;20084;-84
2023/05/05 07:13:56;;;;;;;1.58;0.70;;;;;;;;;;4988785;28;20100;-80
2023/05/05 07:16:24;;;;;;;5.88;0.80;;;;;;;;;;4983812;28;20386;-80
2023/05/05 07:18:50;;;;;;;0.90;0.70;;;;;;;;;;4989685;28;20034;-82
2023/05/05 07:21:16;;;;;;;3.58;1.20;;;;;;;;;;4991466;28;20572;-82
2023/05/05 07:23:42;;;;;;;0.80;0.80;;;;;;;;;;4989479;28;20030;-82
2023/05/05 07:26:08;;;;;;;0.98;0.85;;;;;;;;;;4991538;28;20023;-82
2023/05/05 07:28:34;;;;;;;3.00;0.82;;;;;;;;;;4990452;28;20084;-84
2023/05/05 07:31:01;;;;;;;1.48;0.93;;;;;;;;;;4987128;28;20022;-84
2023/05/05 07:33:27;;;;;;;1.55;1.00;;;;;;;;;;4987456;28;20026;-79
2023/05/05 07:35:53;;;;;;;1.65;1.00;;;;;;;;;;4988280;28;20442;-80
2023/05/05 07:38:22;;;;;;;1.27;0.80;;;;;;;;;;4984231;28;20030;-79
2023/05/05 07:40:48;;;;;;;2.53;0.80;;;;;;;;;;4990316;28;20512;-75
2023/05/05 07:43:14;;;;;;;1.95;1.00;;;;;;;;;;4982599;28;20042;-80
2023/05/05 07:45:40;;;;;;;1.55;0.90;;;;;;;;;;4983426;28;20828;-78
2023/05/05 07:48:06;;;;;;;1.40;1.02;;;;;;;;;;4976165;28;20118;-77
2023/05/05 07:50:32;;;;;;;1.10;0.88;;;;;;;;;;4978689;28;20031;-78
2023/05/05 07:53:00;;;;;;;0.77;0.60;;;;;;;;;;4976863;28;20042;-80
2023/05/05 07:55:26;;;;;;;0.50;0.50;;;;;;;;;;4983429;28;20026;-79
2023/05/05 07:57:52;;;;;;;2.05;1.08;;;;;;;;;;4985378;28;20093;-79
2023/05/05 08:00:18;;;;;;;1.25;0.98;;;;;;;;;;4983446;28;20659;-79
2023/05/05 08:02:45;;;;;;;0.82;0.68;;;;;;;;;;4983634;28;20133;-80
2023/05/05 08:05:11;;;;;;;3.53;0.80;;;;;;;;;;4983991;28;20041;-85
2023/05/05 08:07:39;;;;;;;2.10;0.98;;;;;;;;;;4984702;28;20081;-79
2023/05/05 08:10:06;;;;;;;1.05;0.75;;;;;;;;;;4986921;28;20044;-82
2023/05/05 08:12:35;;;;;;;0.88;0.55;;;;;;;;;;4987474;28;20026;-81
2023/05/05 08:15:01;;;;;;;1.23;0.80;;;;;;;;;;4986460;28;20489;-85
2023/05/05 08:17:27;;;;;;;3.30;1.05;;;;;;;;;;4989048;28;20061;-83
2023/05/05 08:19:54;;;;;;;1.55;0.80;;;;;;;;;;4976568;28;20417;-84
2023/05/05 08:22:20;;;;;;;1.60;0.90;;;;;;;;;;4985083;28;20044;-79
2023/05/05 08:24:46;;;;;;;1.00;0.80;;;;;;;;;;4986012;28;20031;-77
2023/05/05 08:27:15;;;;;;;0.80;0.52;;;;;;;;;;4982396;28;20121;-75
2023/05/05 08:29:41;;;;;;;0.75;0.65;;;;;;;;;;4981005;28;20038;-80
2023/05/05 08:32:07;;;;;;;1.98;1.02;;;;;;;;;;4987530;28;20536;-82
2023/05/05 08:34:33;;;;;;;2.10;0.75;;;;;;;;;;4984181;28;20892;-75
2023/05/05 08:37:01;;;;;;;1.23;0.75;;;;;;;;;;4973354;28;20025;-80
2023/05/05 08:39:28;;;;;;;1.30;0.77;;;;;;;;;;4984251;28;20037;-74
2023/05/05 08:41:54;;;;;;;1.40;0.88;;;;;;;;;;4984068;28;20018;-76
2023/05/05 08:44:20;;;;;;;1.70;0.70;;;;;;;;;;4984773;28;20023;-76
2023/05/05 08:46:47;;;;;;;1.55;1.20;;;;;;;;;;4985503;28;20082;-76
2023/05/05 08:49:15;;;;;;;4.68;1.10;;;;;;;;;;4986309;28;20024;-76
2023/05/05 08:51:43;;;;;;;3.53;1.25;;;;;;;;;;4986121;28;20019;-76
2023/05/05 08:54:10;;;;;;;1.95;1.10;;;;;;;;;;4987325;28;20029;-76
2023/05/05 08:56:40;;;;;;;2.92;1.33;;;;;;;;;;4985358;28;20088;-76
2023/05/05 08:59:13;;;;;;;2.03;0.95;;;;;;;;;;4986147;28;20129;-76
2023/05/05 09:01:40;;;;;;;2.00;1.25;;;;;;;;;;4984552;28;20458;-77
2023/05/05 09:04:07;;;;;;;2.70;1.10;;;;;;;;;;4977419;28;20051;-77
2023/05/05 09:06:36;;;;;;;2.15;1.40;;;;;;;;;;4986544;28;20066;-74
2023/05/05 09:09:02;;;;;;;1.55;1.00;;;;;;;;;;4987186;28;20019;-73
2023/05/05 09:11:32;;;;;;;3.03;1.13;;;;;;;;;;4985954;28;20128;-74
2023/05/05 09:13:58;;;;;;;1.67;1.13;;;;;;;;;;4987721;28;20030;-74
2023/05/05 09:16:24;;;;;;;1.65;1.08;;;;;;;;;;4985508;28;20030;-73
2023/05/05 09:18:50;;;;;;;1.45;1.08;;;;;;;;;;4983845;28;20031;-76
2023/05/05 09:21:25;;;;;;;1.67;1.00;;;;;;;;;;4983919;28;20101;-73
2023/05/05 09:24:10;;;;;;;2.40;1.40;;;;;;;;;;4984802;28;20041;-73
2023/05/05 09:26:49;;;;;;;2.92;1.42;;;;;;;;;;4984833;28;20137;-72
2023/05/05 09:29:19;;;;;;;1.65;0.77;;;;;;;;;;4985809;28;20033;-72
2023/05/05 09:32:04;;;;;;;1.10;1.00;;;;;;;;;;4984624;28;20429;-74
2023/05/05 09:34:30;;;;;;;3.90;1.60;;;;;;;;;;4984750;28;20039;-74
2023/05/05 09:36:56;;;;;;;2.63;0.95;;;;;;;;;;4983528;28;20477;-75
2023/05/05 09:39:22;;;;;;;4.90;1.30;;;;;;;;;;4983771;28;20584;-73
2023/05/05 09:41:48;;;;;;;1.98;0.82;;;;;;;;;;4983243;28;20391;-75
2023/05/05 09:44:17;;;;;;;3.25;1.00;;;;;;;;;;4985116;28;21104;-76
2023/05/05 09:46:50;;;;;;;1.73;1.17;;;;;;;;;;4982970;28;20069;-74
2023/05/05 09:49:22;;;;;;;2.17;1.40;;;;;;;;;;4985937;28;20065;-74
2023/05/05 09:51:48;;;;;;;2.30;1.40;;;;;;;;;;4982257;28;20018;-75
2023/05/05 09:54:24;;;;;;;3.78;1.38;;;;;;;;;;4985936;28;20429;-75
2023/05/05 09:56:51;;;;;;;3.97;1.40;;;;;;;;;;4980505;28;20041;-75
2023/05/05 09:59:17;;;;;;;3.28;1.23;;;;;;;;;;4982157;28;20064;-75
2023/05/05 10:01:43;;;;;;;3.65;1.35;;;;;;;;;;4983808;28;20042;-75
2023/05/05 10:04:22;;;;;;;3.25;1.00;;;;;;;;;;4984045;28;20045;-75
2023/05/05 10:06:48;;;;;;;2.72;1.73;;;;;;;;;;4983421;28;20046;-76
2023/05/05 10:09:14;;;;;;;2.10;1.25;;;;;;;;;;4983773;28;20401;-75
2023/05/05 10:11:45;;;;;;;1.48;1.02;;;;;;;;;;4983886;28;20030;-76
2023/05/05 10:14:13;;;;;;;1.23;1.00;;;;;;;;;;4984632;28;20590;-76
2023/05/05 10:16:43;;;;;;;0.70;0.70;;;;;;;;;;4980402;28;20169;-75
2023/05/05 10:19:09;;;;;;;3.65;1.15;;;;;;;;;;4983699;28;20026;-75
2023/05/05 10:21:38;;;;;;;1.75;1.08;;;;;;;;;;4983176;28;20031;-75
2023/05/05 10:24:15;;;;;;;1.00;0.93;;;;;;;;;;4986024;28;20449;-75
2023/05/05 10:26:41;;;;;;;4.85;1.00;;;;;;;;;;4980697;28;20025;-74
2023/05/05 10:29:12;;;;;;;1.42;1.13;;;;;;;;;;4982243;28;20122;-75
2023/05/05 10:31:49;;;;;;;1.37;1.13;;;;;;;;;;4982064;28;20474;-75
2023/05/05 10:34:24;;;;;;;0.98;0.90;;;;;;;;;;4981546;28;20030;-76
2023/05/05 10:36:50;;;;;;;2.33;1.00;;;;;;;;;;4983607;28;20038;-75
2023/05/05 10:39:18;;;;;;;2.45;1.10;;;;;;;;;;4972627;28;20227;-75
2023/05/05 10:41:46;;;;;;;1.83;1.20;;;;;;;;;;4975215;28;20394;-74
2023/05/05 10:44:13;;;;;;;1.13;0.90;;;;;;;;;;4971103;28;20441;-75
2023/05/05 10:46:39;;;;;;;2.10;1.20;;;;;;;;;;4974968;28;20038;-76
2023/05/05 10:49:24;;;;;;;4.82;0.98;;;;;;;;;;4975198;28;20473;-76
2023/05/05 10:52:05;;;;;;;1.95;1.45;;;;;;;;;;4973357;28;20030;-75
2023/05/05 10:54:37;;;;;;;6.32;1.20;;;;;;;;;;4974752;28;20572;-76
2023/05/05 10:57:04;;;;;;;2.15;0.98;;;;;;;;;;4975976;28;20030;-75
2023/05/05 10:59:36;;;;;;;4.53;1.02;;;;;;;;;;4973038;28;20030;-76
2023/05/05 11:02:21;;;;;;;4.03;1.58;;;;;;;;;;4970727;28;20038;-77
2023/05/05 11:05:05;;;;;;;1.90;1.67;;;;;;;;;;4974225;28;20092;-76
2023/05/05 11:07:33;;;;;;;2.13;0.85;;;;;;;;;;4975699;28;20026;-76
2023/05/05 11:10:06;;;;;;;3.40;0.90;;;;;;;;;;4981056;28;20100;-75
2023/05/05 11:12:32;;;;;;;1.55;1.10;;;;;;;;;;4973290;28;20026;-75
2023/05/05 11:15:17;;;;;;;1.73;1.05;;;;;;;;;;4979906;28;20057;-76
2023/05/05 11:17:44;;;;;;;2.25;1.27;;;;;;;;;;4976885;28;20072;-76
2023/05/05 11:20:10;;;;;;;1.52;1.17;;;;;;;;;;4976153;28;20106;-74
2023/05/05 11:22:55;;;;;;;5.50;1.23;;;;;;;;;;4982125;28;20473;-74
2023/05/05 11:25:37;;;;;;;1.63;1.10;;;;;;;;;;4982393;28;20019;-74
2023/05/05 11:28:03;;;;;;;3.08;1.30;;;;;;;;;;4981209;28;20042;-74
2023/05/05 11:30:30;;;;;;;4.40;1.42;;;;;;;;;;4976313;28;20027;-74
2023/05/05 11:33:15;;;;;;;2.92;1.45;;;;;;;;;;4974896;28;20034;-75
2023/05/05 11:35:59;;;;;;;1.05;0.95;;;;;;;;;;4978698;28;20040;-75
2023/05/05 11:38:29;;;;;;;1.60;1.13;;;;;;;;;;4976147;28;20041;-75
2023/05/05 11:40:59;;;;;;;1.20;1.10;;;;;;;;;;4977059;28;20129;-75
2023/05/05 11:43:25;;;;;;;1.20;1.10;;;;;;;;;;4978602;28;20046;-75
2023/05/05 11:46:09;;;;;;;2.63;1.13;;;;;;;;;;4978588;28;20519;-74
2023/05/05 11:48:44;;;;;;;2.50;1.70;;;;;;;;;;4977593;28;20117;-75
2023/05/05 11:51:12;;;;;;;1.50;1.35;;;;;;;;;;4973191;28;20081;-74
2023/05/05 11:53:41;;;;;;;4.03;1.65;;;;;;;;;;4973712;28;20441;-74
2023/05/05 11:56:08;;;;;;;2.00;1.40;;;;;;;;;;4980266;28;20053;-76
2023/05/05 11:58:34;;;;;;;3.33;1.67;;;;;;;;;;4981985;28;20117;-75
2023/05/05 12:01:00;;;;;;;1.67;1.15;;;;;;;;;;4976838;28;20121;-79
2023/05/05 12:03:26;;;;;;;4.13;1.50;;;;;;;;;;4984402;28;20050;-76
2023/05/05 12:05:55;;;;;;;2.78;1.50;;;;;;;;;;4986467;28;20053;-79
2023/05/05 12:08:21;;;;;;;1.83;1.30;;;;;;;;;;4989743;28;20022;-76
2023/05/05 12:10:47;;;;;;;3.20;1.52;;;;;;;;;;4988757;28;20030;-76
2023/05/05 12:13:19;;;;;;;2.08;1.25;;;;;;;;;;4982443;28;20033;-74
2023/05/05 12:15:45;;;;;;;3.67;1.60;;;;;;;;;;4976945;28;20351;-75
2023/05/05 12:18:20;;;;;;;4.13;1.60;;;;;;;;;;4980911;28;20026;-74
2023/05/05 12:20:46;;;;;;;2.15;1.25;;;;;;;;;;4976822;28;20092;-72
2023/05/05 12:23:13;;;;;;;2.63;1.38;;;;;;;;;;4981379;28;20042;-79
2023/05/05 12:25:39;;;;;;;2.90;1.38;;;;;;;;;;4977379;28;20026;-78
2023/05/05 12:28:07;;;;;;;1.73;1.25;;;;;;;;;;4982352;28;20046;-78
2023/05/05 12:30:33;;;;;;;1.88;1.40;;;;;;;;;;4981872;28;20026;-76
2023/05/05 12:33:05;;;;;;;3.13;1.60;;;;;;;;;;4976238;28;20038;-77
2023/05/05 12:35:32;;;;;;;2.00;1.00;;;;;;;;;;4981693;28;20099;-75
2023/05/05 12:37:58;;;;;;;2.45;1.25;;;;;;;;;;4981885;28;20080;-75
2023/05/05 12:40:44;;;;;;;4.00;2.47;;;;;;;;;;4977612;28;20050;-75
2023/05/05 12:43:22;;;;;;;26.60;13.43;;;;;;;;;;4971644;28;20033;-74
2023/05/05 12:45:57;;;;;;;16.48;5.15;;;;;;;;;;4981491;28;20109;-75
2023/05/05 12:48:23;;;;;;;7.10;2.85;;;;;;;;;;4983420;28;20069;-79
2023/05/05 12:50:49;;;;;;;9.10;2.97;;;;;;;;;;4983914;28;20026;-76
2023/05/05 12:53:22;;;;;;;12.38;6.13;;;;;;;;;;4980481;28;20041;-77
2023/05/05 12:55:48;;;;;;;16.08;5.68;;;;;;;;;;4971508;28;20030;-76
2023/05/05 12:58:14;;;;;;;18.52;6.35;;;;;;;;;;4978588;28;20035;-77
2023/05/05 13:00:40;;;;;;;15.65;6.13;;;;;;;;;;4974966;28;20034;-76
2023/05/05 13:03:06;;;;;;;23.00;7.40;;;;;;;;;;4977082;28;20031;-76
2023/05/05 13:05:32;;;;;;;24.10;6.93;;;;;;;;;;4979393;28;20449;-76
2023/05/05 13:07:59;;;;;;;18.02;5.93;;;;;;;;;;4981526;28;20034;-75
2023/05/05 13:10:25;;;;;;;22.17;6.70;;;;;;;;;;4980744;28;20018;-75
2023/05/05 13:12:54;;;;;;;11.95;5.75;;;;;;;;;;4981493;28;20121;-76
2023/05/05 13:15:20;;;;;;;21.70;7.38;;;;;;;;;;4982601;28;20389;-75
2023/05/05 13:17:46;;;;;;;26.27;6.65;;;;;;;;;;4980918;28;20038;-76
2023/05/05 13:20:12;;;;;;;17.23;7.05;;;;;;;;;;4983874;28;20061;-75
2023/05/05 13:22:38;;;;;;;13.38;5.63;;;;;;;;;;4983444;28;20026;-75
2023/05/05 13:25:04;;;;;;;19.75;5.55;;;;;;;;;;4981709;28;20030;-74
2023/05/05 13:27:30;;;;;;;14.48;5.47;;;;;;;;;;4983828;28;20512;-75
2023/05/05 13:29:56;;;;;;;11.10;4.38;;;;;;;;;;4976361;28;20022;-75
2023/05/05 13:32:25;;;;;;;14.13;5.72;;;;;;;;;;4974396;28;20028;-75
2023/05/05 13:34:51;;;;;;;13.43;5.18;;;;;;;;;;4977101;28;20030;-75
2023/05/05 13:37:17;;;;;;;16.63;5.15;;;;;;;;;;4973779;28;20033;-75
2023/05/05 13:39:43;;;;;;;11.43;4.47;;;;;;;;;;4974922;28;20026;-75
2023/05/05 13:42:09;;;;;;;10.02;4.35;;;;;;;;;;4977676;28;20381;-75
2023/05/05 13:44:35;;;;;;;10.43;4.55;;;;;;;;;;4975589;28;20515;-75
2023/05/05 13:47:01;;;;;;;7.93;3.95;;;;;;;;;;4975931;28;20026;-75
2023/05/05 13:49:27;;;;;;;14.20;5.22;;;;;;;;;;4974821;28;20078;-76
2023/05/05 13:51:55;;;;;;;11.32;4.30;;;;;;;;;;4975070;28;20026;-75
2023/05/05 13:54:21;;;;;;;7.93;3.60;;;;;;;;;;4974017;28;21016;-76
2023/05/05 13:56:46;;;;;;;6.28;3.13;;;;;;;;;;4977550;28;20035;-75
2023/05/05 13:59:12;;;;;;;8.25;4.03;;;;;;;;;;4976458;28;20033;-75
2023/05/05 14:01:39;;;;;;;12.45;2.70;;;;;;;;;;4972548;28;20120;-75
2023/05/05 14:04:05;;;;;;;4.13;2.10;;;;;;;;;;4974058;28;20445;-74
2023/05/05 14:06:34;;;;;;;5.72;3.42;;;;;;;;;;4976190;28;20134;-76
2023/05/05 14:09:04;;;;;;;8.40;2.40;;;;;;;;;;4973717;28;20030;-78
2023/05/05 14:11:33;;;;;;;6.57;2.88;;;;;;;;;;4970990;28;20026;-77
2023/05/05 14:14:02;;;;;;;3.88;2.03;;;;;;;;;;4978149;28;20077;-76
2023/05/05 14:16:28;;;;;;;4.05;2.30;;;;;;;;;;4956772;28;20033;-76
2023/05/05 14:18:54;;;;;;;3.30;1.75;;;;;;;;;;4981098;28;20026;-76
2023/05/05 14:21:20;;;;;;;5.25;2.38;;;;;;;;;;4983498;28;20137;-76
2023/05/05 14:23:49;;;;;;;3.63;1.73;;;;;;;;;;4975930;28;20565;-76
2023/05/05 14:26:15;;;;;;;3.80;2.03;;;;;;;;;;4972090;28;20038;-76
2023/05/05 14:28:42;;;;;;;2.72;1.88;;;;;;;;;;4974967;28;20093;-76
2023/05/05 14:31:08;;;;;;;3.95;1.77;;;;;;;;;;4978717;28;20015;-76
2023/05/05 14:33:34;;;;;;;5.88;1.85;;;;;;;;;;4979486;28;20477;-76
2023/05/05 14:36:00;;;;;;;3.60;1.40;;;;;;;;;;4975267;28;20198;-76
2023/05/05 14:38:26;;;;;;;4.53;1.95;;;;;;;;;;4971059;28;20477;-76
2023/05/05 14:40:52;;;;;;;2.72;1.48;;;;;;;;;;4974525;28;20389;-76
2023/05/05 14:43:18;;;;;;;4.20;1.58;;;;;;;;;;4976788;28;20095;-76
2023/05/05 14:45:44;;;;;;;1.80;1.38;;;;;;;;;;4976285;28;20989;-77
2023/05/05 14:48:10;;;;;;;3.60;1.27;;;;;;;;;;4976399;28;20037;-75